createdAt,value
2018-03-30T00:01:54.815Z,100044.36
2018-03-30T00:04:27.320Z,100031.27
2018-03-30T00:07:09.968Z,100042.70
2018-03-30T00:09:54.240Z,100048.59
2018-03-30T00:12:26.740Z,100043.09
2018-03-30T00:14:59.907Z,100049.05
2018-03-30T00:17:32.776Z,100046.14
2018-03-30T00:20:05.326Z,100050.80
2018-03-30T00:22:38.072Z,100056.71
2018-03-30T00:25:10.692Z,100047.44
2018-03-30T00:27:43.202Z,100047.06
2018-03-30T00:30:15.700Z,100047.91
2018-03-30T00:32:48.207Z,100049.16
2018-03-30T00:35:20.690Z,100043.70
2018-03-30T00:37:53.194Z,100045.89
2018-03-30T00:40:25.671Z,100044.58
2018-03-30T00:42:58.186Z,100048.38
2018-03-30T00:45:30.683Z,100050.03
2018-03-30T00:48:04.302Z,100046.61
2018-03-30T00:50:36.818Z,100054.21
2018-03-30T00:53:21.191Z,100051.28
2018-03-30T00:55:53.671Z,100051.30
2018-03-30T00:58:26.174Z,100057.17
2018-03-30T01:00:58.669Z,100057.63
2018-03-30T01:03:31.459Z,100055.52
2018-03-30T01:06:04.230Z,100060.29
2018-03-30T01:08:36.986Z,100062.78
2018-03-30T01:11:10.461Z,100064.08
2018-03-30T01:13:42.977Z,100064.06
2018-03-30T01:16:15.467Z,100067.84
2018-03-30T01:18:47.962Z,100062.77
2018-03-30T01:21:20.438Z,100074.17
2018-03-30T01:23:52.933Z,100068.70
2018-03-30T01:26:25.427Z,100064.06
2018-03-30T01:28:57.921Z,100060.69
2018-03-30T01:31:31.564Z,100061.54
2018-03-30T01:34:04.223Z,100056.48
2018-03-30T01:36:36.762Z,100056.83
2018-03-30T01:39:09.386Z,100057.33
2018-03-30T01:41:41.963Z,100061.90
2018-03-30T01:44:14.506Z,100063.59
2018-03-30T01:46:46.987Z,100057.70
2018-03-30T01:49:19.487Z,100061.92
2018-03-30T01:51:51.956Z,100057.75
2018-03-30T01:54:24.454Z,100055.23
2018-03-30T01:56:56.927Z,100061.11
2018-03-30T01:59:30.308Z,100064.03
2018-03-30T02:02:03.119Z,100062.75
2018-03-30T02:04:35.772Z,100065.28
2018-03-30T02:07:08.333Z,100061.90
2018-03-30T02:09:40.856Z,100060.20
2018-03-30T02:12:13.350Z,100055.20
2018-03-30T02:14:45.842Z,100048.90
2018-03-30T02:17:18.323Z,100050.61
2018-03-30T02:19:50.823Z,100041.34
2018-03-30T02:22:23.302Z,100038.80
2018-03-30T02:24:55.801Z,100055.25
2018-03-30T02:27:30.055Z,100056.10
2018-03-30T02:30:02.731Z,100056.09
2018-03-30T02:32:35.352Z,100054.42
2018-03-30T02:35:07.972Z,100057.37
2018-03-30T02:37:40.573Z,100056.95
2018-03-30T02:40:13.087Z,100053.59
2018-03-30T02:42:45.586Z,100051.50
2018-03-30T02:45:18.102Z,100048.13
2018-03-30T02:47:50.574Z,100043.91
2018-03-30T02:50:23.066Z,100048.98
2018-03-30T02:52:55.548Z,100046.04
2018-03-30T02:55:28.043Z,100044.33
2018-03-30T02:58:01.765Z,100045.20
2018-03-30T03:00:34.693Z,100046.46
2018-03-30T03:03:07.272Z,100037.19
2018-03-30T03:05:39.938Z,100033.82
2018-03-30T03:08:12.479Z,100029.63
2018-03-30T03:10:44.997Z,100027.11
2018-03-30T03:13:17.504Z,100030.48
2018-03-30T03:15:49.996Z,100032.57
2018-03-30T03:18:22.502Z,100027.53
2018-03-30T03:20:54.982Z,100032.15
2018-03-30T03:23:27.478Z,100028.38
2018-03-30T03:26:00.100Z,100032.58
2018-03-30T03:28:32.886Z,100034.27
2018-03-30T03:31:05.611Z,100035.52
2018-03-30T03:33:38.225Z,100029.63
2018-03-30T03:36:10.891Z,100032.59
2018-03-30T03:38:43.474Z,100033.42
2018-03-30T03:41:15.994Z,100033.83
2018-03-30T03:43:48.490Z,100032.99
2018-03-30T03:46:20.975Z,100023.75
2018-03-30T03:48:53.474Z,100021.64
2018-03-30T03:51:25.965Z,100021.22
2018-03-30T03:53:58.476Z,100019.53
2018-03-30T03:56:31.158Z,100013.22
2018-03-30T03:59:04.340Z,100016.58
2018-03-30T04:01:36.996Z,100018.27
2018-03-30T04:04:09.610Z,100009.02
2018-03-30T04:06:42.190Z,100015.75
2018-03-30T04:09:14.689Z,100017.43
2018-03-30T04:11:47.166Z,100014.91
2018-03-30T04:14:19.655Z,100016.59
2018-03-30T04:16:52.125Z,100023.73
2018-03-30T04:19:24.623Z,100015.34
2018-03-30T04:21:57.098Z,100019.55
2018-03-30T04:24:30.194Z,100011.55
2018-03-30T04:27:03.455Z,100019.13
2018-03-30T04:29:36.228Z,100021.22
2018-03-30T04:32:08.844Z,100017.41
2018-03-30T04:34:41.497Z,100012.38
2018-03-30T04:37:14.059Z,100020.38
2018-03-30T04:39:46.566Z,100026.27
2018-03-30T04:42:19.042Z,100025.02
2018-03-30T04:44:51.547Z,100025.84
2018-03-30T04:47:24.022Z,100029.20
2018-03-30T04:49:56.520Z,100029.19
2018-03-30T04:52:29.054Z,100027.92
2018-03-30T04:55:01.965Z,100037.63
2018-03-30T04:57:35.103Z,100032.58
2018-03-30T05:00:07.883Z,100034.27
2018-03-30T05:02:40.472Z,100035.51
2018-03-30T05:05:13.014Z,100039.72
2018-03-30T05:07:45.521Z,100039.30
2018-03-30T05:10:18.021Z,100037.19
2018-03-30T05:12:50.494Z,100035.50
2018-03-30T05:15:23.002Z,100030.45
2018-03-30T05:17:55.506Z,100032.55
2018-03-30T05:20:28.007Z,100026.68
2018-03-30T05:23:00.928Z,100028.38
2018-03-30T05:25:33.780Z,100027.51
2018-03-30T05:28:06.369Z,100029.20
2018-03-30T05:30:39.093Z,100023.24
2018-03-30T05:33:11.633Z,100026.59
2018-03-30T05:35:44.134Z,100032.91
2018-03-30T05:38:16.613Z,100020.32
2018-03-30T05:40:49.105Z,100029.16
2018-03-30T05:43:21.584Z,100027.05
2018-03-30T05:45:54.078Z,100028.70
2018-03-30T05:48:26.554Z,100023.64
2018-03-30T05:50:59.306Z,100026.58
2018-03-30T05:53:31.946Z,100028.62
2018-03-30T05:56:04.721Z,100030.77
2018-03-30T05:58:37.271Z,100034.11
2018-03-30T06:01:09.980Z,100037.08
2018-03-30T06:03:42.497Z,100035.86
2018-03-30T06:06:15.042Z,100039.62
2018-03-30T06:08:47.518Z,100038.33
2018-03-30T06:11:20.011Z,100044.11
2018-03-30T06:13:52.491Z,100041.52
2018-03-30T06:16:24.985Z,100035.88
2018-03-30T06:18:57.465Z,100042.44
2018-03-30T06:21:30.204Z,100043.09
2018-03-30T06:24:03.077Z,100051.23
2018-03-30T06:26:35.749Z,100043.63
2018-03-30T06:29:08.247Z,100043.53
2018-03-30T06:31:40.866Z,100046.02
2018-03-30T06:34:13.375Z,100043.27
2018-03-30T06:36:45.886Z,100047.45
2018-03-30T06:39:18.370Z,100057.53
2018-03-30T06:41:50.870Z,100054.72
2018-03-30T06:44:23.352Z,100057.66
2018-03-30T06:46:55.851Z,100047.24
2018-03-30T06:49:28.331Z,100054.28
2018-03-30T06:52:01.101Z,100045.50
2018-03-30T06:54:33.804Z,100050.09
2018-03-30T06:57:06.475Z,100050.11
2018-03-30T06:59:39.200Z,100048.38
2018-03-30T07:02:11.783Z,100051.28
2018-03-30T07:04:44.326Z,100058.48
2018-03-30T07:07:16.815Z,100050.83
2018-03-30T07:09:49.328Z,100059.77
2018-03-30T07:12:21.811Z,100058.97
2018-03-30T07:14:54.315Z,100051.81
2018-03-30T07:17:26.816Z,100050.98
2018-03-30T07:19:59.378Z,100056.91
2018-03-30T07:22:32.138Z,100057.33
2018-03-30T07:25:05.248Z,100052.66
2018-03-30T07:27:38.023Z,100055.08
2018-03-30T07:30:10.633Z,100050.75
2018-03-30T07:32:43.110Z,100048.75
2018-03-30T07:35:15.604Z,100053.03
2018-03-30T07:37:48.088Z,100052.45
2018-03-30T07:40:20.589Z,100048.62
2018-03-30T07:42:53.063Z,100052.25
2018-03-30T07:45:25.562Z,100051.02
2018-03-30T07:47:58.038Z,100035.91
2018-03-30T07:50:31.686Z,100042.98
2018-03-30T07:53:04.454Z,100034.14
2018-03-30T07:55:37.150Z,100034.02
2018-03-30T07:58:09.769Z,100021.11
2018-03-30T08:00:42.405Z,100028.44
2018-03-30T08:03:14.903Z,100025.91
2018-03-30T08:05:47.434Z,100026.93
2018-03-30T08:08:19.918Z,100029.02
2018-03-30T08:10:52.438Z,100030.28
2018-03-30T08:13:24.958Z,100029.52
2018-03-30T08:15:57.464Z,100028.16
2018-03-30T08:18:30.272Z,100036.16
2018-03-30T08:21:04.417Z,100035.90
2018-03-30T08:23:37.093Z,100030.30
2018-03-30T08:26:09.716Z,100030.68
2018-03-30T08:28:42.430Z,100029.34
2018-03-30T08:31:14.954Z,100027.94
2018-03-30T08:33:47.459Z,100033.55
2018-03-30T08:36:19.961Z,100028.18
2018-03-30T08:38:52.438Z,100030.43
2018-03-30T08:41:24.932Z,100023.48
2018-03-30T08:43:57.406Z,100020.90
2018-03-30T08:46:30.035Z,100018.12
2018-03-30T08:49:02.616Z,100026.41
2018-03-30T08:51:35.267Z,100030.84
2018-03-30T08:54:07.811Z,100020.37
2018-03-30T08:56:40.768Z,100021.80
2018-03-30T08:59:13.299Z,100024.82
2018-03-30T09:01:45.815Z,100021.45
2018-03-30T09:04:18.351Z,100026.78
2018-03-30T09:06:50.806Z,100027.14
2018-03-30T09:09:23.291Z,100026.70
2018-03-30T09:11:55.781Z,100021.92
2018-03-30T09:14:28.250Z,100026.34
2018-03-30T09:17:01.453Z,100024.83
2018-03-30T09:19:34.209Z,100020.97
2018-03-30T09:22:06.822Z,100017.47
2018-03-30T09:24:39.361Z,100019.66
2018-03-30T09:27:11.932Z,100022.77
2018-03-30T09:29:50.110Z,100014.17
2018-03-30T09:32:22.614Z,100018.50
2018-03-30T09:34:55.096Z,100019.31
2018-03-30T09:37:27.590Z,100006.13
2018-03-30T09:40:00.181Z,100004.73
2018-03-30T09:42:33.214Z,100009.03
2018-03-30T09:45:05.855Z,100003.73
2018-03-30T09:47:38.666Z,100000.42
2018-03-30T09:50:11.235Z,100001.23
2018-03-30T09:52:43.776Z,100003.22
2018-03-30T09:55:16.255Z,99996.01
2018-03-30T09:57:48.750Z,99997.30
2018-03-30T10:00:21.220Z,99987.88
2018-03-30T10:02:53.717Z,99984.67
2018-03-30T10:05:26.190Z,99977.90
2018-03-30T10:07:58.694Z,99977.03
2018-03-30T10:10:32.408Z,99973.27
2018-03-30T10:13:05.056Z,99964.84
2018-03-30T10:15:37.800Z,99964.55
2018-03-30T10:18:10.501Z,99954.42
2018-03-30T10:20:43.077Z,99953.92
2018-03-30T10:23:15.598Z,99954.86
2018-03-30T10:25:48.083Z,99955.71
2018-03-30T10:28:20.577Z,99952.44
2018-03-30T10:30:53.054Z,99943.77
2018-03-30T10:33:25.541Z,99932.72
2018-03-30T10:35:58.036Z,99935.23
2018-03-30T10:38:30.724Z,99934.42
2018-03-30T10:41:03.363Z,99940.31
2018-03-30T10:43:35.911Z,99939.56
2018-03-30T10:46:08.544Z,99935.74
2018-03-30T10:48:41.100Z,99931.45
2018-03-30T10:51:13.614Z,99934.39
2018-03-30T10:53:46.097Z,99932.58
2018-03-30T10:56:18.590Z,99929.69
2018-03-30T10:58:51.607Z,99923.08
2018-03-30T11:01:24.116Z,99927.61
2018-03-30T11:03:56.590Z,99916.59
2018-03-30T11:06:29.153Z,99916.28
2018-03-30T11:09:01.736Z,99906.93
2018-03-30T11:11:34.294Z,99910.06
2018-03-30T11:14:06.825Z,99896.75
2018-03-30T11:16:39.389Z,99901.91
2018-03-30T11:19:11.897Z,99895.45
2018-03-30T11:21:44.402Z,99892.88
2018-03-30T11:24:16.931Z,99891.94
2018-03-30T11:26:49.426Z,99886.74
2018-03-30T11:29:21.902Z,99885.96
2018-03-30T11:31:54.423Z,99880.66
2018-03-30T11:34:26.924Z,99879.60
2018-03-30T11:36:59.523Z,99867.87
2018-03-30T11:39:32.114Z,99865.63
2018-03-30T11:42:04.630Z,99859.83
2018-03-30T11:44:37.229Z,99849.96
2018-03-30T11:47:09.806Z,99860.92
2018-03-30T11:49:42.314Z,99852.59
2018-03-30T11:52:14.867Z,99842.54
2018-03-30T11:54:47.354Z,99836.41
2018-03-30T11:57:19.854Z,99833.35
2018-03-30T11:59:52.344Z,99835.86
2018-03-30T12:02:24.877Z,99824.16
2018-03-30T12:04:57.375Z,99829.56
2018-03-30T12:07:30.391Z,99832.30
2018-03-30T12:10:02.981Z,99822.51
2018-03-30T12:12:35.529Z,99823.34
2018-03-30T12:15:09.213Z,99818.42
2018-03-30T12:17:41.714Z,99805.67
2018-03-30T12:20:14.205Z,99799.44
2018-03-30T12:22:46.698Z,99787.66
2018-03-30T12:25:19.174Z,99790.30
2018-03-30T12:27:51.670Z,99782.66
2018-03-30T12:30:24.150Z,99773.82
2018-03-30T12:32:56.707Z,99772.95
2018-03-30T12:35:29.200Z,99762.36
2018-03-30T12:38:01.717Z,99757.33
2018-03-30T12:40:34.294Z,99749.46
2018-03-30T12:43:06.806Z,99760.42
2018-03-30T12:45:39.310Z,99746.94
2018-03-30T12:48:11.811Z,99745.93
2018-03-30T12:50:44.302Z,99736.03
2018-03-30T12:53:16.803Z,99728.61
2018-03-30T12:55:49.284Z,99729.55
2018-03-30T12:58:21.791Z,99731.55
2018-03-30T13:00:54.275Z,99722.27
2018-03-30T13:03:26.776Z,99714.34
2018-03-30T13:05:59.270Z,99720.38
2018-03-30T13:08:31.802Z,99706.66
2018-03-30T13:11:04.345Z,99690.22
2018-03-30T13:13:36.911Z,99692.30
2018-03-30T13:16:09.414Z,99687.73
2018-03-30T13:18:41.910Z,99675.47
2018-03-30T13:21:14.414Z,99674.95
2018-03-30T13:23:46.909Z,99663.01
2018-03-30T13:26:19.389Z,99658.65
2018-03-30T13:28:51.885Z,99651.45
2018-03-30T13:31:24.365Z,99650.04
2018-03-30T13:33:56.862Z,99649.64
2018-03-30T13:36:29.406Z,99647.58
2018-03-30T13:39:01.939Z,99650.12
2018-03-30T13:41:34.436Z,99644.81
2018-03-30T13:44:06.955Z,99652.27
2018-03-30T13:46:39.438Z,99635.98
2018-03-30T13:49:11.938Z,99633.75
2018-03-30T13:52:01.072Z,99632.00
2018-03-30T13:54:34.462Z,99635.14
2018-03-30T13:57:10.206Z,99625.66
2018-03-30T13:59:43.621Z,99623.89
2018-03-30T14:05:32.433Z,99616.95
2018-03-30T14:08:06.595Z,99609.38
2018-03-30T14:10:44.957Z,99610.56
2018-03-30T14:13:17.553Z,99618.26
2018-03-30T14:15:51.047Z,99627.81
2018-03-30T14:18:26.411Z,99622.34
2018-03-30T14:21:02.643Z,99620.19
2018-03-30T14:23:36.152Z,99599.89
2018-03-30T14:26:13.403Z,99605.09
2018-03-30T14:31:57.753Z,99608.23
2018-03-30T14:34:35.674Z,99605.80
2018-03-30T14:37:10.709Z,99612.95
2018-03-30T14:42:58.961Z,99589.59
2018-03-30T14:48:37.664Z,99573.84
2018-03-30T14:51:16.657Z,99583.80
2018-03-30T14:53:51.099Z,99587.69
2018-03-30T14:56:30.461Z,99576.84
2018-03-30T15:02:22.200Z,99578.63
2018-03-30T15:04:59.457Z,99582.98
2018-03-30T15:07:34.518Z,99568.86
2018-03-30T15:10:17.526Z,99572.89
2018-03-30T15:12:53.474Z,99568.45
2018-03-30T15:15:40.800Z,99571.66
2018-03-30T15:18:14.078Z,99572.92
2018-03-30T15:20:50.176Z,99577.15
2018-03-30T15:23:32.030Z,99576.11
2018-03-30T15:26:08.405Z,99571.03
2018-03-30T15:28:41.611Z,99570.11
2018-03-30T15:31:32.669Z,99569.43
2018-03-30T15:34:07.738Z,99572.55
2018-03-30T15:39:41.400Z,99578.53
2018-03-30T15:42:13.968Z,99565.89
2018-03-30T15:44:47.284Z,99563.05
2018-03-30T15:47:20.707Z,99559.22
2018-03-30T15:49:54.206Z,99561.05
2018-03-30T15:52:26.805Z,99549.14
2018-03-30T15:54:59.360Z,99549.56
2018-03-30T15:57:31.933Z,99561.45
2018-03-30T16:00:07.319Z,99550.80
2018-03-30T16:02:39.897Z,99544.84
2018-03-30T16:05:12.447Z,99549.97
2018-03-30T16:07:45.032Z,99544.08
2018-03-30T16:10:20.309Z,99528.47
2018-03-30T16:13:02.787Z,99530.70
2018-03-30T16:15:35.377Z,99523.98
2018-03-30T16:18:07.931Z,99524.67
2018-03-30T16:20:42.428Z,99523.42
2018-03-30T16:23:14.450Z,99520.27
2018-03-30T16:25:46.449Z,99529.70
2018-03-30T16:28:18.482Z,99527.69
2018-03-30T16:30:50.500Z,99530.56
2018-03-30T16:33:22.524Z,99511.25
2018-03-30T16:35:54.842Z,99520.49
2018-03-30T16:38:26.932Z,99510.28
2018-03-30T16:40:58.925Z,99509.26
2018-03-30T16:43:30.953Z,99517.77
2018-03-30T16:46:02.963Z,99520.64
2018-03-30T16:48:35.004Z,99525.59
2018-03-30T16:51:07.020Z,99519.81
2018-03-30T16:53:39.040Z,99534.17
2018-03-30T16:56:11.034Z,99538.23
2018-03-30T16:58:43.059Z,99529.26
2018-03-30T17:01:15.087Z,99531.02
2018-03-30T17:03:48.662Z,99527.09
2018-03-30T17:06:20.691Z,99531.00
2018-03-30T17:08:52.717Z,99540.09
2018-03-30T17:11:24.727Z,99539.81
2018-03-30T17:13:56.772Z,99541.90
2018-03-30T17:16:28.777Z,99538.87
2018-03-30T17:19:00.805Z,99530.56
2018-03-30T17:21:32.819Z,99537.40
2018-03-30T17:24:04.848Z,99535.62
2018-03-30T17:26:36.856Z,99538.53
2018-03-30T17:29:08.902Z,99539.59
2018-03-30T17:31:40.945Z,99538.63
2018-03-30T17:34:13.029Z,99530.31
2018-03-30T17:36:45.115Z,99534.52
2018-03-30T17:39:17.205Z,99530.72
2018-03-30T17:41:49.351Z,99533.54
2018-03-30T17:44:21.737Z,99527.98
2018-03-30T17:46:53.758Z,99529.94
2018-03-30T17:49:25.779Z,99532.26
2018-03-30T17:51:57.789Z,99530.98
2018-03-30T17:54:29.826Z,99528.48
2018-03-30T17:57:01.855Z,99530.88
2018-03-30T17:59:33.912Z,99531.73
2018-03-30T18:02:06.951Z,99533.64
2018-03-30T18:04:39.114Z,99525.41
2018-03-30T18:07:11.155Z,99531.00
2018-03-30T18:09:43.192Z,99536.77
2018-03-30T18:12:15.220Z,99533.11
2018-03-30T18:14:47.277Z,99540.11
2018-03-30T18:17:19.286Z,99536.66
2018-03-30T18:19:51.315Z,99538.97
2018-03-30T18:22:23.381Z,99547.56
2018-03-30T18:24:55.419Z,99539.53
2018-03-30T18:27:27.431Z,99544.75
2018-03-30T18:29:59.477Z,99551.99
2018-03-30T18:32:31.489Z,99556.50
2018-03-30T18:35:03.524Z,99556.16
2018-03-30T18:37:35.535Z,99558.45
2018-03-30T18:40:07.594Z,99550.69
2018-03-30T18:42:39.619Z,99551.55
2018-03-30T18:45:11.673Z,99552.33
2018-03-30T18:47:43.696Z,99549.20
2018-03-30T18:50:15.768Z,99554.62
2018-03-30T18:52:47.745Z,99549.41
2018-03-30T18:55:19.770Z,99557.88
2018-03-30T18:57:51.794Z,99554.13
2018-03-30T19:00:23.863Z,99552.67
2018-03-30T19:02:55.884Z,99550.17
2018-03-30T19:05:27.934Z,99545.25
2018-03-30T19:07:59.948Z,99550.53
2018-03-30T19:10:32.042Z,99550.03
2018-03-30T19:13:04.053Z,99549.95
2018-03-30T19:15:36.083Z,99540.17
2018-03-30T19:18:08.100Z,99540.02
2018-03-30T19:20:40.145Z,99539.28
2018-03-30T19:23:12.189Z,99543.48
2018-03-30T19:25:44.240Z,99545.31
2018-03-30T19:28:16.225Z,99525.98
2018-03-30T19:30:48.276Z,99531.41
2018-03-30T19:33:20.299Z,99539.13
2018-03-30T19:35:52.355Z,99539.41
2018-03-30T19:38:24.729Z,99536.77
2018-03-30T19:40:56.843Z,99539.62
2018-03-30T19:43:29.178Z,99541.91
2018-03-30T19:46:01.252Z,99541.66
2018-03-30T19:48:33.234Z,99540.80
2018-03-30T19:51:05.250Z,99545.41
2018-03-30T19:53:37.300Z,99546.56
2018-03-30T19:56:09.332Z,99538.10
2018-03-30T19:58:41.342Z,99539.38
2018-03-30T20:01:13.359Z,99542.97
2018-03-30T20:03:45.383Z,99536.55
2018-03-30T20:06:17.416Z,99543.80
2018-03-30T20:08:49.416Z,99534.11
2018-03-30T20:11:21.444Z,99535.80
2018-03-30T20:16:31.711Z,99535.36
2018-03-30T20:19:03.748Z,99526.19
2018-03-30T20:21:35.765Z,99525.81
2018-03-30T20:24:07.764Z,99515.66
2018-03-30T20:26:39.773Z,99510.44
2018-03-30T20:29:11.790Z,99508.64
2018-03-30T20:31:43.807Z,99504.91
2018-03-30T20:34:15.837Z,99506.95
2018-03-30T20:36:47.850Z,99502.27
2018-03-30T20:39:19.876Z,99501.30
2018-03-30T20:41:51.872Z,99498.92
2018-03-30T20:44:23.882Z,99499.75
2018-03-30T20:46:55.900Z,99497.42
2018-03-30T20:49:27.953Z,99504.83
2018-03-30T20:51:59.965Z,99500.40
2018-03-30T20:54:31.991Z,99499.54
2018-03-30T20:57:03.996Z,99498.98
2018-03-30T20:59:36.030Z,99497.96
2018-03-30T21:02:08.040Z,99498.92
2018-03-30T21:04:40.063Z,99503.42
2018-03-30T21:07:12.089Z,99497.03
2018-03-30T21:09:44.134Z,99500.45
2018-03-30T21:12:16.141Z,99504.55
2018-03-30T21:14:48.184Z,99505.50
2018-03-30T21:17:20.193Z,99501.91
2018-03-30T21:19:52.241Z,99508.02
2018-03-30T21:22:24.247Z,99503.16
2018-03-30T21:24:56.261Z,99508.28
2018-03-30T21:27:28.316Z,99502.03
2018-03-30T21:30:00.358Z,99501.73
2018-03-30T21:32:32.366Z,99500.10
2018-03-30T21:35:04.423Z,99501.69
2018-03-30T21:37:36.448Z,99500.33
2018-03-30T21:40:08.484Z,99498.37
2018-03-30T21:42:40.487Z,99489.59
2018-03-30T21:45:12.523Z,99478.53
2018-03-30T21:47:44.572Z,99497.69
2018-03-30T21:50:16.606Z,99494.76
2018-03-30T21:52:48.615Z,99491.55
2018-03-30T21:55:20.632Z,99490.91
2018-03-30T21:57:52.641Z,99480.36
2018-03-30T22:00:24.678Z,99480.48
2018-03-30T22:02:56.704Z,99483.96
2018-03-30T22:05:28.736Z,99480.89
2018-03-30T22:08:00.770Z,99475.03
2018-03-30T22:10:32.828Z,99477.02
2018-03-30T22:13:04.826Z,99470.74
2018-03-30T22:15:36.850Z,99468.20
2018-03-30T22:18:08.874Z,99469.95
2018-03-30T22:20:40.938Z,99464.91
2018-03-30T22:23:12.934Z,99467.68
2018-03-30T22:25:45.014Z,99454.51
2018-03-30T22:28:17.026Z,99471.27
2018-03-30T22:30:49.060Z,99461.64
2018-03-30T22:33:21.134Z,99456.81
2018-03-30T22:35:53.195Z,99458.58
2018-03-30T22:38:25.234Z,99451.39
2018-03-30T22:40:57.314Z,99452.81
2018-03-30T22:43:29.399Z,99458.00
2018-03-30T22:46:01.479Z,99449.69
2018-03-30T22:48:33.499Z,99459.66
2018-03-30T22:53:43.790Z,99453.56
2018-03-30T22:56:15.891Z,99447.91
2018-03-30T22:58:47.925Z,99439.23
2018-03-30T23:01:19.961Z,99432.13
2018-03-30T23:03:51.951Z,99435.53
2018-03-30T23:06:24.035Z,99435.66
2018-03-30T23:08:56.062Z,99442.45
2018-03-30T23:11:28.110Z,99439.86
2018-03-30T23:14:00.119Z,99432.23
2018-03-30T23:16:32.157Z,99426.53
2018-03-30T23:19:04.169Z,99423.72
2018-03-30T23:21:36.216Z,99416.95
2018-03-30T23:24:08.242Z,99416.92
2018-03-30T23:26:40.311Z,99411.70
2018-03-30T23:29:12.333Z,99409.78
2018-03-30T23:31:44.394Z,99411.53
2018-03-30T23:34:16.402Z,99413.03
2018-03-30T23:36:48.444Z,99409.91
2018-03-30T23:39:20.431Z,99409.23
2018-03-30T23:41:52.455Z,99407.39
2018-03-30T23:44:24.455Z,99400.30
2018-03-30T23:46:56.490Z,99400.80
2018-03-30T23:49:28.486Z,99394.53
2018-03-30T23:52:00.522Z,99388.72
2018-03-30T23:54:32.543Z,99396.61
2018-03-30T23:57:04.579Z,99400.31
2018-03-30T23:59:36.605Z,99380.83
